createdAt,value
2023-03-19T00:01:07.987Z,16.87
2023-03-19T00:03:37.052Z,20.40
2023-03-19T00:06:06.027Z,19.90
2023-03-19T00:08:34.706Z,20.53
2023-03-19T00:11:08.559Z,19.57
2023-03-19T00:13:38.718Z,18.60
2023-03-19T00:16:08.753Z,18.63
2023-03-19T00:18:37.377Z,17.23
2023-03-19T00:21:06.670Z,21.00
2023-03-19T00:23:35.378Z,18.73
2023-03-19T00:26:04.238Z,18.50
2023-03-19T00:28:33.005Z,20.00
2023-03-19T00:31:12.488Z,23.50
2023-03-19T00:33:41.400Z,19.13
2023-03-19T00:36:11.161Z,19.23
2023-03-19T00:38:40.419Z,17.43
2023-03-19T00:41:09.020Z,18.67
2023-03-19T00:43:37.996Z,18.87
2023-03-19T00:46:07.349Z,22.00
2023-03-19T00:48:37.474Z,45.83
2023-03-19T00:51:08.510Z,24.43
2023-03-19T00:53:39.988Z,21.03
2023-03-19T00:56:09.257Z,24.60
2023-03-19T00:58:38.864Z,22.13
2023-03-19T01:01:08.416Z,24.10
2023-03-19T01:03:38.672Z,17.90
2023-03-19T01:06:08.122Z,16.33
2023-03-19T01:08:36.788Z,18.00
2023-03-19T01:11:12.295Z,14.37
2023-03-19T01:13:41.489Z,14.83
2023-03-19T01:16:10.482Z,13.40
2023-03-19T01:18:40.593Z,13.53
2023-03-19T01:21:09.409Z,12.30
2023-03-19T01:23:43.977Z,14.10
2023-03-19T01:26:13.177Z,11.30
2023-03-19T01:28:42.074Z,14.80
2023-03-19T01:31:12.201Z,10.53
2023-03-19T01:34:00.859Z,10.63
2023-03-19T01:36:47.999Z,9.60
2023-03-19T01:39:19.602Z,11.37
2023-03-19T01:41:48.841Z,8.20
2023-03-19T01:44:45.061Z,7.37
2023-03-19T01:47:33.397Z,13.93
2023-03-19T01:50:27.336Z,7.17
2023-03-19T01:53:19.119Z,10.30
2023-03-19T01:55:57.919Z,8.50
2023-03-19T01:58:58.478Z,10.23
2023-03-19T02:01:44.411Z,14.10
2023-03-19T02:04:13.526Z,14.13
2023-03-19T02:06:45.659Z,7.23
2023-03-19T02:09:16.176Z,8.40
2023-03-19T02:11:45.200Z,9.50
2023-03-19T02:14:13.737Z,12.20
2023-03-19T02:16:42.535Z,9.50
2023-03-19T02:19:16.218Z,9.03
2023-03-19T02:21:46.357Z,8.30
2023-03-19T02:24:20.773Z,9.80
2023-03-19T02:27:00.250Z,9.53
2023-03-19T02:29:29.728Z,11.27
2023-03-19T02:32:00.906Z,12.07
2023-03-19T02:34:40.050Z,10.40
2023-03-19T02:37:18.330Z,10.40
2023-03-19T02:39:56.844Z,11.40
2023-03-19T02:42:29.608Z,11.90
2023-03-19T02:44:59.039Z,11.70
2023-03-19T02:47:28.904Z,11.90
2023-03-19T02:49:57.426Z,11.20
2023-03-19T02:52:27.752Z,12.40
2023-03-19T02:54:56.245Z,9.73
2023-03-19T02:57:27.796Z,11.73
2023-03-19T02:59:56.381Z,11.20
2023-03-19T03:02:25.126Z,12.13
2023-03-19T03:04:53.721Z,9.50
2023-03-19T03:07:22.255Z,9.43
2023-03-19T03:09:51.124Z,8.57
2023-03-19T03:12:19.718Z,8.53
2023-03-19T03:14:49.670Z,9.53
2023-03-19T03:17:19.264Z,8.53
2023-03-19T03:19:47.864Z,10.17
2023-03-19T03:22:16.421Z,9.80
2023-03-19T03:24:45.047Z,12.30
2023-03-19T03:27:13.709Z,10.50
2023-03-19T03:29:42.566Z,10.07
2023-03-19T03:32:12.682Z,9.30
2023-03-19T03:34:41.713Z,9.63
2023-03-19T03:37:10.517Z,9.37
2023-03-19T03:39:39.050Z,11.20
2023-03-19T03:42:08.800Z,10.63
2023-03-19T03:44:38.439Z,10.43
2023-03-19T03:47:07.563Z,8.03
2023-03-19T03:49:37.643Z,14.77
2023-03-19T03:52:08.007Z,13.57
2023-03-19T03:54:37.082Z,9.17
2023-03-19T03:57:06.194Z,10.40
2023-03-19T03:59:34.936Z,8.93
2023-03-19T04:02:04.036Z,11.23
2023-03-19T04:04:33.890Z,10.30
2023-03-19T04:07:04.098Z,11.60
2023-03-19T04:09:55.718Z,10.20
2023-03-19T04:12:24.340Z,10.70
2023-03-19T04:14:53.157Z,10.07
2023-03-19T04:17:21.709Z,8.70
2023-03-19T04:19:50.317Z,12.87
2023-03-19T04:22:20.264Z,13.63
2023-03-19T04:24:48.934Z,10.17
2023-03-19T04:27:17.611Z,7.57
2023-03-19T04:29:46.376Z,9.83
2023-03-19T04:32:15.775Z,13.13
2023-03-19T04:34:44.622Z,7.67
2023-03-19T04:37:13.285Z,8.93
2023-03-19T04:39:49.666Z,11.30
2023-03-19T04:42:18.266Z,9.40
2023-03-19T04:44:53.556Z,9.93
2023-03-19T04:47:25.709Z,8.80
2023-03-19T04:50:00.117Z,10.60
2023-03-19T04:52:29.434Z,15.83
2023-03-19T04:54:59.892Z,9.63
2023-03-19T04:57:28.700Z,9.30
2023-03-19T04:59:57.950Z,8.97
2023-03-19T05:02:27.372Z,11.00
2023-03-19T05:04:56.597Z,9.43
2023-03-19T05:07:25.061Z,13.53
2023-03-19T05:09:54.340Z,9.13
2023-03-19T05:12:24.816Z,8.97
2023-03-19T05:14:55.665Z,8.27
2023-03-19T05:17:31.278Z,10.63
2023-03-19T05:20:32.055Z,9.60
2023-03-19T05:23:07.353Z,11.23
2023-03-19T05:25:47.728Z,8.07
2023-03-19T05:28:23.024Z,9.00
2023-03-19T05:30:51.541Z,11.80
2023-03-19T05:33:24.155Z,11.23
2023-03-19T05:35:56.421Z,9.10
2023-03-19T05:38:35.180Z,11.30
2023-03-19T05:41:09.542Z,12.03
2023-03-19T05:43:47.706Z,12.03
2023-03-19T05:46:27.666Z,9.20
2023-03-19T05:48:56.342Z,8.90
2023-03-19T05:51:24.736Z,8.37
2023-03-19T05:53:53.201Z,8.97
2023-03-19T05:56:33.898Z,9.00
2023-03-19T05:59:22.662Z,7.43
2023-03-19T06:02:03.708Z,7.77
2023-03-19T06:04:32.525Z,7.43
2023-03-19T06:07:01.224Z,7.50
2023-03-19T06:09:30.269Z,9.37
2023-03-19T06:11:58.704Z,10.60
2023-03-19T06:14:47.266Z,9.27
2023-03-19T06:17:39.162Z,11.77
2023-03-19T06:20:13.093Z,9.63
2023-03-19T06:22:42.594Z,13.70
2023-03-19T06:25:12.174Z,6.97
2023-03-19T06:27:40.610Z,11.43
2023-03-19T06:30:22.549Z,9.70
2023-03-19T06:32:51.972Z,7.83
2023-03-19T06:35:21.031Z,10.20
2023-03-19T06:37:51.149Z,7.00
2023-03-19T06:40:20.160Z,8.80
2023-03-19T06:42:49.365Z,7.90
2023-03-19T06:45:19.533Z,6.97
2023-03-19T06:47:50.609Z,7.27
2023-03-19T06:50:20.224Z,8.77
2023-03-19T06:52:48.629Z,9.53
2023-03-19T06:55:17.853Z,9.70
2023-03-19T06:57:50.307Z,8.50
2023-03-19T07:00:21.167Z,7.30
2023-03-19T07:02:50.948Z,7.53
2023-03-19T07:05:19.408Z,6.80
2023-03-19T07:07:47.873Z,9.13
2023-03-19T07:10:18.052Z,7.70
2023-03-19T07:12:46.425Z,7.77
2023-03-19T07:15:15.610Z,10.27
2023-03-19T07:17:45.274Z,8.03
2023-03-19T07:20:16.253Z,8.70
2023-03-19T07:22:44.680Z,7.40
2023-03-19T07:25:13.021Z,8.00
2023-03-19T07:27:41.524Z,7.70
2023-03-19T07:30:12.175Z,7.00
2023-03-19T07:32:41.037Z,10.50
2023-03-19T07:35:10.732Z,6.63
2023-03-19T07:37:40.585Z,13.10
2023-03-19T07:40:11.227Z,8.40
2023-03-19T07:42:39.689Z,9.50
2023-03-19T07:45:09.700Z,9.20
2023-03-19T07:47:38.079Z,8.27
2023-03-19T07:50:08.205Z,8.50
2023-03-19T07:52:36.694Z,6.80
2023-03-19T07:55:07.663Z,6.73
2023-03-19T07:57:36.054Z,7.27
2023-03-19T08:00:05.297Z,7.10
2023-03-19T08:02:42.772Z,9.77
2023-03-19T08:05:12.188Z,9.40
2023-03-19T08:07:40.633Z,6.30
2023-03-19T08:10:12.587Z,7.67
2023-03-19T08:12:41.278Z,6.87
2023-03-19T08:15:12.114Z,6.03
2023-03-19T08:17:40.551Z,6.60
2023-03-19T08:20:12.168Z,7.03
2023-03-19T08:22:41.863Z,6.23
2023-03-19T08:25:12.445Z,6.10
2023-03-19T08:27:41.657Z,6.43
2023-03-19T08:30:12.677Z,10.10
2023-03-19T08:32:41.171Z,7.20
2023-03-19T08:35:10.942Z,6.73
2023-03-19T08:37:39.392Z,7.13
2023-03-19T08:40:09.564Z,6.40
2023-03-19T08:42:44.324Z,9.47
2023-03-19T08:45:16.255Z,7.23
2023-03-19T08:47:45.403Z,6.40
2023-03-19T08:50:14.157Z,6.07
2023-03-19T08:52:42.857Z,5.80
2023-03-19T08:55:12.129Z,8.73
2023-03-19T08:57:41.986Z,7.63
2023-03-19T09:00:12.505Z,6.13
2023-03-19T09:02:40.949Z,7.00
2023-03-19T09:05:10.364Z,6.50
2023-03-19T09:07:38.832Z,5.63
2023-03-19T09:10:08.865Z,6.13
2023-03-19T09:12:37.239Z,5.30
2023-03-19T09:15:08.609Z,7.17
2023-03-19T09:17:37.223Z,5.70
2023-03-19T09:20:07.466Z,6.23
2023-03-19T09:22:35.852Z,4.93
2023-03-19T09:25:04.843Z,8.00
2023-03-19T09:27:33.186Z,5.53
2023-03-19T10:01:00.131Z,8.20
2023-03-19T10:03:43.728Z,7.00
2023-03-19T10:06:31.916Z,7.10
2023-03-19T10:12:44.301Z,5.27
2023-03-19T10:15:20.114Z,5.53
2023-03-19T10:17:59.219Z,5.23
2023-03-19T10:27:15.182Z,4.97
2023-03-19T10:29:44.011Z,4.90
2023-03-19T10:33:22.439Z,6.33
2023-03-19T10:35:58.549Z,4.83
2023-03-19T10:38:28.463Z,3.80
2023-03-19T10:41:17.825Z,4.63
2023-03-19T10:43:53.930Z,4.37
2023-03-19T10:48:17.103Z,4.70
2023-03-19T10:50:51.211Z,4.53
2023-03-19T10:53:38.607Z,2.87
2023-03-19T10:56:11.798Z,4.40
2023-03-19T10:59:39.462Z,3.30
2023-03-19T11:02:19.751Z,2.57
2023-03-19T11:04:48.104Z,3.47
2023-03-19T11:07:21.078Z,11.73
2023-03-19T11:09:51.618Z,4.60
2023-03-19T11:12:23.020Z,2.93
2023-03-19T11:14:55.090Z,2.83
2023-03-19T11:17:41.708Z,5.43
2023-03-19T11:20:31.742Z,3.83
2023-03-19T11:23:03.186Z,2.80
2023-03-19T11:25:37.775Z,3.20
2023-03-19T11:28:10.120Z,4.13
2023-03-19T11:30:54.720Z,4.33
2023-03-19T11:33:41.921Z,4.60
2023-03-19T11:36:14.823Z,5.80
2023-03-19T11:39:07.450Z,8.00
2023-03-19T11:42:00.030Z,3.30
2023-03-19T11:44:35.072Z,3.80
2023-03-19T11:47:26.235Z,6.10
2023-03-19T11:50:18.362Z,3.20
2023-03-19T11:53:02.882Z,4.20
2023-03-19T11:55:39.483Z,11.50
2023-03-19T11:58:28.675Z,3.80
2023-03-19T12:00:58.813Z,9.17
2023-03-19T12:04:08.096Z,3.80
2023-03-19T12:06:53.590Z,6.37
2023-03-19T12:09:30.890Z,6.00
2023-03-19T12:12:08.783Z,3.90
2023-03-19T12:14:55.287Z,6.93
2023-03-19T12:17:41.644Z,5.07
2023-03-19T12:20:36.385Z,5.50
2023-03-19T12:23:16.576Z,7.70
2023-03-19T12:26:08.793Z,5.40
2023-03-19T12:28:42.959Z,3.47
2023-03-19T12:31:35.513Z,5.53
2023-03-19T12:34:23.852Z,4.90
2023-03-19T12:37:00.569Z,5.83
2023-03-19T12:39:37.367Z,5.03
2023-03-19T12:42:06.832Z,8.30
2023-03-19T12:44:40.896Z,4.07
2023-03-19T12:47:14.241Z,4.07
2023-03-19T12:49:52.134Z,4.07
2023-03-19T12:52:26.644Z,4.20
2023-03-19T12:55:01.074Z,4.70
2023-03-19T12:57:36.754Z,9.20
2023-03-19T13:00:11.229Z,5.57
2023-03-19T13:02:46.601Z,6.13
2023-03-19T13:05:26.304Z,4.33
2023-03-19T13:08:03.607Z,5.30
2023-03-19T13:10:33.531Z,5.47
2023-03-19T13:13:11.618Z,7.60
2023-03-19T13:15:46.405Z,5.83
2023-03-19T13:18:26.001Z,4.40
2023-03-19T13:21:12.678Z,11.07
2023-03-19T13:23:45.398Z,6.47
2023-03-19T13:26:15.112Z,4.73
2023-03-19T13:29:01.626Z,4.50
2023-03-19T13:31:35.808Z,2.87
2023-03-19T13:34:07.864Z,4.00
2023-03-19T13:36:40.363Z,4.30
2023-03-19T13:39:17.570Z,4.20
2023-03-19T13:42:09.752Z,4.70
2023-03-19T13:44:43.309Z,5.33
2023-03-19T13:47:42.332Z,3.07
2023-03-19T13:50:34.272Z,3.60
2023-03-19T13:53:39.691Z,3.80
2023-03-19T13:56:26.511Z,3.07
2023-03-19T13:59:27.066Z,3.50
2023-03-19T14:01:55.996Z,14.43
2023-03-19T14:04:27.885Z,12.03
2023-03-19T14:06:59.581Z,5.73
2023-03-19T14:09:38.808Z,3.50
2023-03-19T14:12:30.781Z,5.13
2023-03-19T14:15:04.832Z,3.83
2023-03-19T14:17:36.434Z,2.53
2023-03-19T14:20:36.593Z,2.93
2023-03-19T14:23:23.847Z,3.50
2023-03-19T14:26:07.822Z,1.77
2023-03-19T14:29:00.879Z,1.80
2023-03-19T14:31:42.573Z,1.63
2023-03-19T14:34:23.470Z,2.77
2023-03-19T14:37:00.167Z,2.47
2023-03-19T14:39:32.476Z,3.60
2023-03-19T14:42:07.185Z,4.40
2023-03-19T14:45:27.762Z,1.60
2023-03-19T14:48:21.644Z,2.60
2023-03-19T14:51:17.280Z,2.90
2023-03-19T14:53:51.259Z,4.80
2023-03-19T14:56:25.318Z,3.10
2023-03-19T14:58:56.944Z,3.67
2023-03-19T15:01:28.502Z,5.50
2023-03-19T15:04:03.104Z,3.47
2023-03-19T15:06:36.014Z,2.07
2023-03-19T15:09:08.033Z,2.87
2023-03-19T15:12:34.323Z,5.30
2023-03-19T15:15:30.597Z,6.60
2023-03-19T15:18:04.740Z,6.60
2023-03-19T15:20:38.296Z,5.43
2023-03-19T15:23:23.505Z,4.30
2023-03-19T15:25:57.965Z,3.67
2023-03-19T15:28:28.203Z,4.27
2023-03-19T15:31:08.657Z,4.93
2023-03-19T15:33:46.282Z,4.80
